sensor_id;sensor_type;location;lat;lon;timestamp;temperature;humidity
17998;DHT22;9124;48.144;17.098;2023-02-13T00:01:59;3.40;82.20
17998;DHT22;9124;48.144;17.098;2023-02-13T00:05:36;3.40;82.50
17998;DHT22;9124;48.144;17.098;2023-02-13T00:09:12;3.40;82.70
17998;DHT22;9124;48.144;17.098;2023-02-13T00:12:49;3.50;83.00
17998;DHT22;9124;48.144;17.098;2023-02-13T00:16:25;3.50;83.20
17998;DHT22;9124;48.144;17.098;2023-02-13T00:20:01;3.50;83.40
17998;DHT22;9124;48.144;17.098;2023-02-13T00:23:39;3.40;83.60
17998;DHT22;9124;48.144;17.098;2023-02-13T00:27:15;3.50;84.00
17998;DHT22;9124;48.144;17.098;2023-02-13T00:30:51;3.40;84.00
17998;DHT22;9124;48.144;17.098;2023-02-13T00:34:29;3.40;84.20
17998;DHT22;9124;48.144;17.098;2023-02-13T00:38:05;3.40;84.40
17998;DHT22;9124;48.144;17.098;2023-02-13T00:41:42;3.30;84.60
17998;DHT22;9124;48.144;17.098;2023-02-13T00:45:18;3.30;84.90
17998;DHT22;9124;48.144;17.098;2023-02-13T00:48:54;3.20;85.10
17998;DHT22;9124;48.144;17.098;2023-02-13T00:52:30;3.20;85.40
17998;DHT22;9124;48.144;17.098;2023-02-13T00:56:07;3.20;85.70
17998;DHT22;9124;48.144;17.098;2023-02-13T00:59:45;3.10;85.80
17998;DHT22;9124;48.144;17.098;2023-02-13T01:03:23;3.10;86.10
17998;DHT22;9124;48.144;17.098;2023-02-13T01:06:59;3.10;86.20
17998;DHT22;9124;48.144;17.098;2023-02-13T01:10:40;3.10;86.60
17998;DHT22;9124;48.144;17.098;2023-02-13T01:14:17;3.10;86.90
17998;DHT22;9124;48.144;17.098;2023-02-13T01:17:56;3.10;87.10
17998;DHT22;9124;48.144;17.098;2023-02-13T01:21:35;3.10;87.20
17998;DHT22;9124;48.144;17.098;2023-02-13T01:25:11;3.10;87.40
17998;DHT22;9124;48.144;17.098;2023-02-13T01:28:52;3.00;87.60
17998;DHT22;9124;48.144;17.098;2023-02-13T01:32:29;3.00;87.90
17998;DHT22;9124;48.144;17.098;2023-02-13T01:36:07;3.00;88.20
17998;DHT22;9124;48.144;17.098;2023-02-13T01:39:46;3.10;88.60
17998;DHT22;9124;48.144;17.098;2023-02-13T01:43:23;3.20;88.80
17998;DHT22;9124;48.144;17.098;2023-02-13T01:47:00;3.20;89.50
17998;DHT22;9124;48.144;17.098;2023-02-13T01:50:53;3.20;89.10
17998;DHT22;9124;48.144;17.098;2023-02-13T01:54:34;3.10;89.30
17998;DHT22;9124;48.144;17.098;2023-02-13T01:58:14;3.00;89.30
17998;DHT22;9124;48.144;17.098;2023-02-13T02:01:53;2.90;89.50
17998;DHT22;9124;48.144;17.098;2023-02-13T02:05:34;2.90;89.70
17998;DHT22;9124;48.144;17.098;2023-02-13T02:09:17;2.80;90.00
17998;DHT22;9124;48.144;17.098;2023-02-13T02:13:17;2.90;90.20
17998;DHT22;9124;48.144;17.098;2023-02-13T02:16:55;2.80;90.30
17998;DHT22;9124;48.144;17.098;2023-02-13T02:21:02;2.80;90.30
17998;DHT22;9124;48.144;17.098;2023-02-13T02:28:36;2.60;90.40
17998;DHT22;9124;48.144;17.098;2023-02-13T02:55:45;2.50;91.30
17998;DHT22;9124;48.144;17.098;2023-02-13T02:59:27;2.50;91.40
17998;DHT22;9124;48.144;17.098;2023-02-13T03:03:24;2.40;91.50
17998;DHT22;9124;48.144;17.098;2023-02-13T03:07:20;2.50;91.70
17998;DHT22;9124;48.144;17.098;2023-02-13T03:10:57;2.50;91.70
17998;DHT22;9124;48.144;17.098;2023-02-13T03:14:52;2.50;91.90
17998;DHT22;9124;48.144;17.098;2023-02-13T03:18:31;2.60;92.00
17998;DHT22;9124;48.144;17.098;2023-02-13T03:22:40;2.60;92.10
17998;DHT22;9124;48.144;17.098;2023-02-13T03:26:37;2.60;92.30
17998;DHT22;9124;48.144;17.098;2023-02-13T03:34:35;2.60;92.60
17998;DHT22;9124;48.144;17.098;2023-02-13T03:38:45;2.70;92.70
17998;DHT22;9124;48.144;17.098;2023-02-13T03:42:30;2.70;92.80
17998;DHT22;9124;48.144;17.098;2023-02-13T03:46:08;2.70;92.90
17998;DHT22;9124;48.144;17.098;2023-02-13T03:49:47;2.70;93.00
17998;DHT22;9124;48.144;17.098;2023-02-13T03:53:46;2.70;93.20
17998;DHT22;9124;48.144;17.098;2023-02-13T03:57:24;2.60;93.30
17998;DHT22;9124;48.144;17.098;2023-02-13T04:01:24;2.60;93.40
17998;DHT22;9124;48.144;17.098;2023-02-13T04:05:10;2.70;93.60
17998;DHT22;9124;48.144;17.098;2023-02-13T04:08:48;2.70;93.80
17998;DHT22;9124;48.144;17.098;2023-02-13T04:16:20;2.70;94.00
17998;DHT22;9124;48.144;17.098;2023-02-13T04:19:57;2.70;94.00
17998;DHT22;9124;48.144;17.098;2023-02-13T04:23:34;2.60;94.10
17998;DHT22;9124;48.144;17.098;2023-02-13T04:27:13;2.50;94.30
17998;DHT22;9124;48.144;17.098;2023-02-13T04:30:50;2.50;94.50
17998;DHT22;9124;48.144;17.098;2023-02-13T04:34:26;2.50;94.60
17998;DHT22;9124;48.144;17.098;2023-02-13T04:38:03;2.50;94.80
17998;DHT22;9124;48.144;17.098;2023-02-13T04:41:39;2.50;94.90
17998;DHT22;9124;48.144;17.098;2023-02-13T04:45:16;2.40;95.00
17998;DHT22;9124;48.144;17.098;2023-02-13T04:48:52;2.40;95.20
17998;DHT22;9124;48.144;17.098;2023-02-13T04:52:29;2.40;95.30
17998;DHT22;9124;48.144;17.098;2023-02-13T04:56:05;2.30;95.40
17998;DHT22;9124;48.144;17.098;2023-02-13T04:59:41;2.30;95.50
17998;DHT22;9124;48.144;17.098;2023-02-13T05:03:18;2.20;95.60
17998;DHT22;9124;48.144;17.098;2023-02-13T05:06:54;2.20;95.70
17998;DHT22;9124;48.144;17.098;2023-02-13T05:10:30;2.10;95.90
17998;DHT22;9124;48.144;17.098;2023-02-13T05:14:09;2.20;96.10
17998;DHT22;9124;48.144;17.098;2023-02-13T05:17:46;2.20;96.30
17998;DHT22;9124;48.144;17.098;2023-02-13T05:21:22;2.30;96.50
17998;DHT22;9124;48.144;17.098;2023-02-13T05:25:17;2.40;96.70
17998;DHT22;9124;48.144;17.098;2023-02-13T05:28:53;2.40;97.10
17998;DHT22;9124;48.144;17.098;2023-02-13T05:32:48;2.50;97.00
17998;DHT22;9124;48.144;17.098;2023-02-13T05:36:28;2.50;97.10
17998;DHT22;9124;48.144;17.098;2023-02-13T05:40:04;2.60;97.20
17998;DHT22;9124;48.144;17.098;2023-02-13T05:43:41;2.60;97.40
17998;DHT22;9124;48.144;17.098;2023-02-13T05:47:17;2.60;97.50
17998;DHT22;9124;48.144;17.098;2023-02-13T05:50:54;2.60;97.70
17998;DHT22;9124;48.144;17.098;2023-02-13T05:54:30;2.60;97.80
17998;DHT22;9124;48.144;17.098;2023-02-13T05:58:06;2.70;98.00
17998;DHT22;9124;48.144;17.098;2023-02-13T06:01:44;2.70;98.10
17998;DHT22;9124;48.144;17.098;2023-02-13T06:05:20;2.80;98.20
17998;DHT22;9124;48.144;17.098;2023-02-13T06:08:56;2.90;98.40
17998;DHT22;9124;48.144;17.098;2023-02-13T06:12:33;2.90;98.60
17998;DHT22;9124;48.144;17.098;2023-02-13T06:16:10;3.00;98.70
17998;DHT22;9124;48.144;17.098;2023-02-13T06:19:47;3.10;98.80
17998;DHT22;9124;48.144;17.098;2023-02-13T06:23:23;3.20;98.90
17998;DHT22;9124;48.144;17.098;2023-02-13T06:26:59;3.20;99.00
17998;DHT22;9124;48.144;17.098;2023-02-13T06:30:36;3.30;99.10
17998;DHT22;9124;48.144;17.098;2023-02-13T06:34:12;3.60;99.40
17998;DHT22;9124;48.144;17.098;2023-02-13T06:37:48;4.00;99.60
17998;DHT22;9124;48.144;17.098;2023-02-13T06:41:25;4.40;99.70
17998;DHT22;9124;48.144;17.098;2023-02-13T06:45:02;4.60;99.60
17998;DHT22;9124;48.144;17.098;2023-02-13T06:48:38;4.90;99.60
17998;DHT22;9124;48.144;17.098;2023-02-13T06:52:14;5.20;99.50
17998;DHT22;9124;48.144;17.098;2023-02-13T06:55:52;5.40;99.40
17998;DHT22;9124;48.144;17.098;2023-02-13T06:59:29;5.60;99.40
17998;DHT22;9124;48.144;17.098;2023-02-13T07:03:05;5.80;99.20
17998;DHT22;9124;48.144;17.098;2023-02-13T07:06:42;5.90;99.20
17998;DHT22;9124;48.144;17.098;2023-02-13T07:10:18;5.90;99.10
17998;DHT22;9124;48.144;17.098;2023-02-13T07:13:55;6.00;99.00
17998;DHT22;9124;48.144;17.098;2023-02-13T07:17:31;6.10;98.90
17998;DHT22;9124;48.144;17.098;2023-02-13T07:21:09;6.20;98.90
17998;DHT22;9124;48.144;17.098;2023-02-13T07:24:45;6.30;98.80
17998;DHT22;9124;48.144;17.098;2023-02-13T07:28:22;6.40;98.80
17998;DHT22;9124;48.144;17.098;2023-02-13T07:31:58;6.50;98.70
17998;DHT22;9124;48.144;17.098;2023-02-13T07:35:34;6.60;98.60
17998;DHT22;9124;48.144;17.098;2023-02-13T07:39:12;6.70;98.50
17998;DHT22;9124;48.144;17.098;2023-02-13T07:42:49;6.80;98.40
17998;DHT22;9124;48.144;17.098;2023-02-13T07:46:25;6.70;98.20
17998;DHT22;9124;48.144;17.098;2023-02-13T07:50:02;6.80;98.20
17998;DHT22;9124;48.144;17.098;2023-02-13T07:53:41;6.70;98.20
17998;DHT22;9124;48.144;17.098;2023-02-13T07:57:17;6.70;98.10
17998;DHT22;9124;48.144;17.098;2023-02-13T08:00:53;6.70;98.10
17998;DHT22;9124;48.144;17.098;2023-02-13T08:04:30;6.80;98.10
17998;DHT22;9124;48.144;17.098;2023-02-13T08:08:07;6.70;98.10
17998;DHT22;9124;48.144;17.098;2023-02-13T08:11:43;6.90;98.40
17998;DHT22;9124;48.144;17.098;2023-02-13T08:15:28;6.90;97.90
17998;DHT22;9124;48.144;17.098;2023-02-13T08:19:04;7.00;97.90
17998;DHT22;9124;48.144;17.098;2023-02-13T08:22:41;7.00;97.80
17998;DHT22;9124;48.144;17.098;2023-02-13T08:26:17;7.10;97.70
17998;DHT22;9124;48.144;17.098;2023-02-13T08:29:54;7.20;97.60
17998;DHT22;9124;48.144;17.098;2023-02-13T08:33:30;7.20;97.40
17998;DHT22;9124;48.144;17.098;2023-02-13T08:37:07;7.30;97.40
17998;DHT22;9124;48.144;17.098;2023-02-13T08:40:43;7.30;97.20
17998;DHT22;9124;48.144;17.098;2023-02-13T08:44:19;7.30;97.00
17998;DHT22;9124;48.144;17.098;2023-02-13T08:47:57;7.40;97.00
17998;DHT22;9124;48.144;17.098;2023-02-13T08:51:34;7.50;96.90
17998;DHT22;9124;48.144;17.098;2023-02-13T08:55:10;7.60;96.80
17998;DHT22;9124;48.144;17.098;2023-02-13T08:58:49;7.70;96.50
17998;DHT22;9124;48.144;17.098;2023-02-13T09:02:26;7.70;96.40
17998;DHT22;9124;48.144;17.098;2023-02-13T09:06:03;7.70;96.30
17998;DHT22;9124;48.144;17.098;2023-02-13T09:09:39;7.70;96.10
17998;DHT22;9124;48.144;17.098;2023-02-13T09:13:16;7.60;96.10
17998;DHT22;9124;48.144;17.098;2023-02-13T09:16:52;7.70;96.10
17998;DHT22;9124;48.144;17.098;2023-02-13T09:20:28;7.70;96.00
17998;DHT22;9124;48.144;17.098;2023-02-13T09:24:09;7.70;95.90
17998;DHT22;9124;48.144;17.098;2023-02-13T09:27:45;7.70;95.80
17998;DHT22;9124;48.144;17.098;2023-02-13T09:31:21;7.80;95.80
17998;DHT22;9124;48.144;17.098;2023-02-13T09:34:59;7.90;95.80
17998;DHT22;9124;48.144;17.098;2023-02-13T09:38:35;8.00;95.60
17998;DHT22;9124;48.144;17.098;2023-02-13T09:42:24;8.00;95.50
17998;DHT22;9124;48.144;17.098;2023-02-13T09:46:08;8.10;95.40
17998;DHT22;9124;48.144;17.098;2023-02-13T09:49:56;8.10;95.30
17998;DHT22;9124;48.144;17.098;2023-02-13T09:53:33;8.10;95.20
17998;DHT22;9124;48.144;17.098;2023-02-13T09:57:24;8.10;95.20
17998;DHT22;9124;48.144;17.098;2023-02-13T10:01:05;8.20;95.00
17998;DHT22;9124;48.144;17.098;2023-02-13T10:08:55;8.10;94.80
17998;DHT22;9124;48.144;17.098;2023-02-13T10:16:37;8.10;94.70
17998;DHT22;9124;48.144;17.098;2023-02-13T10:24:40;8.10;94.70
17998;DHT22;9124;48.144;17.098;2023-02-13T10:28:18;8.20;94.60
17998;DHT22;9124;48.144;17.098;2023-02-13T10:32:06;8.10;94.50
17998;DHT22;9124;48.144;17.098;2023-02-13T10:39:30;8.10;94.40
17998;DHT22;9124;48.144;17.098;2023-02-13T10:43:08;8.10;94.40
17998;DHT22;9124;48.144;17.098;2023-02-13T11:02:26;8.20;94.20
17998;DHT22;9124;48.144;17.098;2023-02-13T11:06:07;8.40;94.10
17998;DHT22;9124;48.144;17.098;2023-02-13T11:09:47;8.50;94.10
17998;DHT22;9124;48.144;17.098;2023-02-13T11:13:27;8.60;94.00
17998;DHT22;9124;48.144;17.098;2023-02-13T11:17:06;8.70;93.90
17998;DHT22;9124;48.144;17.098;2023-02-13T11:20:58;8.90;93.80
17998;DHT22;9124;48.144;17.098;2023-02-13T11:24:35;9.20;93.70
17998;DHT22;9124;48.144;17.098;2023-02-13T11:28:17;9.30;93.60
17998;DHT22;9124;48.144;17.098;2023-02-13T11:36:07;9.50;93.20
17998;DHT22;9124;48.144;17.098;2023-02-13T11:39:46;9.80;92.90
17998;DHT22;9124;48.144;17.098;2023-02-13T11:43:33;9.80;92.80
17998;DHT22;9124;48.144;17.098;2023-02-13T11:47:11;9.80;92.70
17998;DHT22;9124;48.144;17.098;2023-02-13T11:50:53;9.90;92.60
17998;DHT22;9124;48.144;17.098;2023-02-13T11:54:35;9.90;92.50
17998;DHT22;9124;48.144;17.098;2023-02-13T11:58:34;10.00;92.20
17998;DHT22;9124;48.144;17.098;2023-02-13T12:02:27;10.10;92.10
17998;DHT22;9124;48.144;17.098;2023-02-13T12:06:14;10.10;92.00
17998;DHT22;9124;48.144;17.098;2023-02-13T12:09:59;10.20;91.70
17998;DHT22;9124;48.144;17.098;2023-02-13T12:13:38;10.10;91.60
17998;DHT22;9124;48.144;17.098;2023-02-13T12:17:25;9.90;91.70
17998;DHT22;9124;48.144;17.098;2023-02-13T12:37:29;9.60;91.20
17998;DHT22;9124;48.144;17.098;2023-02-13T12:41:27;9.30;91.10
17998;DHT22;9124;48.144;17.098;2023-02-13T13:12:28;9.80;91.30
17998;DHT22;9124;48.144;17.098;2023-02-13T13:28:18;10.10;90.60
17998;DHT22;9124;48.144;17.098;2023-02-13T13:32:01;10.00;90.40
17998;DHT22;9124;48.144;17.098;2023-02-13T13:35:40;10.10;90.30
17998;DHT22;9124;48.144;17.098;2023-02-13T13:39:31;10.20;90.10
17998;DHT22;9124;48.144;17.098;2023-02-13T13:51:21;10.70;89.10
17998;DHT22;9124;48.144;17.098;2023-02-13T13:55:00;10.50;88.60
17998;DHT22;9124;48.144;17.098;2023-02-13T14:06:17;10.00;87.70
17998;DHT22;9124;48.144;17.098;2023-02-13T14:09:53;9.50;87.50
17998;DHT22;9124;48.144;17.098;2023-02-13T14:17:12;8.90;88.00
17998;DHT22;9124;48.144;17.098;2023-02-13T14:20:59;8.80;88.30
17998;DHT22;9124;48.144;17.098;2023-02-13T14:24:36;8.70;88.50
17998;DHT22;9124;48.144;17.098;2023-02-13T14:28:26;8.70;88.60
17998;DHT22;9124;48.144;17.098;2023-02-13T14:32:06;8.90;88.80
17998;DHT22;9124;48.144;17.098;2023-02-13T14:35:43;9.00;88.70
17998;DHT22;9124;48.144;17.098;2023-02-13T14:47:04;9.20;88.90
17998;DHT22;9124;48.144;17.098;2023-02-13T14:50:51;9.20;88.90
17998;DHT22;9124;48.144;17.098;2023-02-13T14:54:38;9.20;89.10
17998;DHT22;9124;48.144;17.098;2023-02-13T14:58:32;9.20;89.30
17998;DHT22;9124;48.144;17.098;2023-02-13T15:05:55;9.20;89.20
17998;DHT22;9124;48.144;17.098;2023-02-13T15:09:38;9.10;89.10
17998;DHT22;9124;48.144;17.098;2023-02-13T15:13:33;9.00;89.30
17998;DHT22;9124;48.144;17.098;2023-02-13T15:17:15;9.00;89.50
17998;DHT22;9124;48.144;17.098;2023-02-13T15:20:54;9.00;89.50
17998;DHT22;9124;48.144;17.098;2023-02-13T15:24:44;9.00;89.50
17998;DHT22;9124;48.144;17.098;2023-02-13T15:28:23;9.00;89.50
17998;DHT22;9124;48.144;17.098;2023-02-13T15:32:00;9.00;89.50
17998;DHT22;9124;48.144;17.098;2023-02-13T15:35:57;9.00;89.30
17998;DHT22;9124;48.144;17.098;2023-02-13T15:39:34;8.90;89.40
17998;DHT22;9124;48.144;17.098;2023-02-13T15:43:43;8.80;89.30
17998;DHT22;9124;48.144;17.098;2023-02-13T15:47:30;8.80;89.40
17998;DHT22;9124;48.144;17.098;2023-02-13T15:51:09;8.70;89.50
17998;DHT22;9124;48.144;17.098;2023-02-13T15:54:54;8.60;89.60
17998;DHT22;9124;48.144;17.098;2023-02-13T15:58:33;8.70;89.60
17998;DHT22;9124;48.144;17.098;2023-02-13T16:02:22;8.60;89.50
17998;DHT22;9124;48.144;17.098;2023-02-13T16:05:59;8.60;89.50
17998;DHT22;9124;48.144;17.098;2023-02-13T16:09:35;8.50;89.60
17998;DHT22;9124;48.144;17.098;2023-02-13T16:13:17;8.50;89.60
17998;DHT22;9124;48.144;17.098;2023-02-13T16:16:57;8.40;89.60
17998;DHT22;9124;48.144;17.098;2023-02-13T16:20:34;8.40;89.60
17998;DHT22;9124;48.144;17.098;2023-02-13T16:24:14;8.40;89.60
17998;DHT22;9124;48.144;17.098;2023-02-13T16:27:55;8.40;89.60
17998;DHT22;9124;48.144;17.098;2023-02-13T16:31:31;8.40;89.40
17998;DHT22;9124;48.144;17.098;2023-02-13T16:35:35;8.40;89.40
17998;DHT22;9124;48.144;17.098;2023-02-13T16:39:28;8.40;89.40
17998;DHT22;9124;48.144;17.098;2023-02-13T16:43:34;8.30;89.40
17998;DHT22;9124;48.144;17.098;2023-02-13T16:47:21;8.40;89.30
17998;DHT22;9124;48.144;17.098;2023-02-13T16:50:59;8.30;89.10
17998;DHT22;9124;48.144;17.098;2023-02-13T16:54:59;8.40;89.00
17998;DHT22;9124;48.144;17.098;2023-02-13T16:58:38;8.30;88.80
17998;DHT22;9124;48.144;17.098;2023-02-13T17:06:01;8.40;88.60
17998;DHT22;9124;48.144;17.098;2023-02-13T17:09:37;8.40;88.50
17998;DHT22;9124;48.144;17.098;2023-02-13T17:13:15;8.40;88.30
17998;DHT22;9124;48.144;17.098;2023-02-13T17:16:54;8.40;88.10
17998;DHT22;9124;48.144;17.098;2023-02-13T17:20:33;8.40;88.10
17998;DHT22;9124;48.144;17.098;2023-02-13T17:24:16;8.40;87.90
17998;DHT22;9124;48.144;17.098;2023-02-13T17:27:55;8.40;87.70
17998;DHT22;9124;48.144;17.098;2023-02-13T17:31:33;8.30;87.60
17998;DHT22;9124;48.144;17.098;2023-02-13T17:35:11;8.30;87.50
17998;DHT22;9124;48.144;17.098;2023-02-13T17:38:48;8.30;87.40
17998;DHT22;9124;48.144;17.098;2023-02-13T17:42:27;8.30;87.30
17998;DHT22;9124;48.144;17.098;2023-02-13T17:46:03;8.30;87.20
17998;DHT22;9124;48.144;17.098;2023-02-13T17:49:40;8.20;87.10
17998;DHT22;9124;48.144;17.098;2023-02-13T17:53:27;8.10;87.00
17998;DHT22;9124;48.144;17.098;2023-02-13T17:57:07;8.10;87.00
17998;DHT22;9124;48.144;17.098;2023-02-13T18:00:44;8.00;86.90
17998;DHT22;9124;48.144;17.098;2023-02-13T18:04:20;8.00;86.90
17998;DHT22;9124;48.144;17.098;2023-02-13T18:07:57;8.00;86.80
17998;DHT22;9124;48.144;17.098;2023-02-13T18:11:33;8.00;86.70
17998;DHT22;9124;48.144;17.098;2023-02-13T18:15:13;8.00;86.70
17998;DHT22;9124;48.144;17.098;2023-02-13T18:18:51;8.00;86.60
17998;DHT22;9124;48.144;17.098;2023-02-13T18:22:28;7.90;86.40
17998;DHT22;9124;48.144;17.098;2023-02-13T18:26:08;7.90;86.50
17998;DHT22;9124;48.144;17.098;2023-02-13T18:29:46;7.90;86.40
17998;DHT22;9124;48.144;17.098;2023-02-13T18:33:22;7.90;86.30
17998;DHT22;9124;48.144;17.098;2023-02-13T18:36:58;7.90;86.10
17998;DHT22;9124;48.144;17.098;2023-02-13T18:40:35;7.90;86.10
17998;DHT22;9124;48.144;17.098;2023-02-13T18:44:12;7.90;86.10
17998;DHT22;9124;48.144;17.098;2023-02-13T18:47:48;8.00;86.20
17998;DHT22;9124;48.144;17.098;2023-02-13T18:51:24;8.00;86.10
17998;DHT22;9124;48.144;17.098;2023-02-13T18:55:01;7.90;86.00
17998;DHT22;9124;48.144;17.098;2023-02-13T18:58:38;7.90;86.00
17998;DHT22;9124;48.144;17.098;2023-02-13T19:02:14;7.90;85.90
17998;DHT22;9124;48.144;17.098;2023-02-13T19:05:50;7.90;86.00
17998;DHT22;9124;48.144;17.098;2023-02-13T19:09:27;7.90;85.90
17998;DHT22;9124;48.144;17.098;2023-02-13T19:13:03;7.90;85.90
17998;DHT22;9124;48.144;17.098;2023-02-13T19:16:40;7.90;85.90
17998;DHT22;9124;48.144;17.098;2023-02-13T19:20:16;7.90;85.80
17998;DHT22;9124;48.144;17.098;2023-02-13T19:23:53;7.80;86.40
17998;DHT22;9124;48.144;17.098;2023-02-13T19:27:30;7.90;85.80
17998;DHT22;9124;48.144;17.098;2023-02-13T19:31:08;7.90;85.80
17998;DHT22;9124;48.144;17.098;2023-02-13T19:34:45;7.80;85.60
17998;DHT22;9124;48.144;17.098;2023-02-13T19:38:22;7.80;85.50
17998;DHT22;9124;48.144;17.098;2023-02-13T19:41:58;7.70;85.40
17998;DHT22;9124;48.144;17.098;2023-02-13T19:45:35;7.70;85.50
17998;DHT22;9124;48.144;17.098;2023-02-13T19:49:11;7.60;85.60
17998;DHT22;9124;48.144;17.098;2023-02-13T19:52:47;7.50;85.60
17998;DHT22;9124;48.144;17.098;2023-02-13T19:56:26;7.40;85.70
17998;DHT22;9124;48.144;17.098;2023-02-13T20:00:03;7.30;85.80
17998;DHT22;9124;48.144;17.098;2023-02-13T20:03:48;7.20;85.90
17998;DHT22;9124;48.144;17.098;2023-02-13T20:07:25;7.10;86.00
17998;DHT22;9124;48.144;17.098;2023-02-13T20:11:01;7.00;86.10
17998;DHT22;9124;48.144;17.098;2023-02-13T20:14:37;6.90;86.20
17998;DHT22;9124;48.144;17.098;2023-02-13T20:18:14;6.90;86.50
17998;DHT22;9124;48.144;17.098;2023-02-13T20:21:52;6.90;86.60
17998;DHT22;9124;48.144;17.098;2023-02-13T20:25:29;6.90;86.60
17998;DHT22;9124;48.144;17.098;2023-02-13T20:29:07;6.90;86.80
17998;DHT22;9124;48.144;17.098;2023-02-13T20:32:44;6.90;86.90
17998;DHT22;9124;48.144;17.098;2023-02-13T20:36:22;6.90;87.00
17998;DHT22;9124;48.144;17.098;2023-02-13T20:39:59;6.90;87.10
17998;DHT22;9124;48.144;17.098;2023-02-13T20:43:36;6.90;87.20
17998;DHT22;9124;48.144;17.098;2023-02-13T20:47:12;6.90;87.30
17998;DHT22;9124;48.144;17.098;2023-02-13T20:50:59;6.80;87.30
17998;DHT22;9124;48.144;17.098;2023-02-13T20:54:36;6.80;87.50
17998;DHT22;9124;48.144;17.098;2023-02-13T20:58:12;6.70;87.50
17998;DHT22;9124;48.144;17.098;2023-02-13T21:01:48;6.60;87.50
17998;DHT22;9124;48.144;17.098;2023-02-13T21:05:25;6.60;87.60
17998;DHT22;9124;48.144;17.098;2023-02-13T21:09:03;6.60;87.60
17998;DHT22;9124;48.144;17.098;2023-02-13T21:12:40;6.80;87.70
17998;DHT22;9124;48.144;17.098;2023-02-13T21:16:19;6.80;87.80
17998;DHT22;9124;48.144;17.098;2023-02-13T21:19:56;6.80;87.80
17998;DHT22;9124;48.144;17.098;2023-02-13T21:23:33;6.90;87.80
17998;DHT22;9124;48.144;17.098;2023-02-13T21:27:09;6.90;87.90
17998;DHT22;9124;48.144;17.098;2023-02-13T21:30:46;6.90;87.90
17998;DHT22;9124;48.144;17.098;2023-02-13T21:34:22;6.90;87.90
17998;DHT22;9124;48.144;17.098;2023-02-13T21:37:58;6.90;87.90
17998;DHT22;9124;48.144;17.098;2023-02-13T21:41:35;6.90;88.10
17998;DHT22;9124;48.144;17.098;2023-02-13T21:45:14;6.90;88.10
17998;DHT22;9124;48.144;17.098;2023-02-13T21:48:53;6.90;88.10
17998;DHT22;9124;48.144;17.098;2023-02-13T21:52:29;6.90;88.20
17998;DHT22;9124;48.144;17.098;2023-02-13T21:56:12;6.90;88.20
17998;DHT22;9124;48.144;17.098;2023-02-13T21:59:48;6.90;88.30
17998;DHT22;9124;48.144;17.098;2023-02-13T22:03:25;7.00;88.30
17998;DHT22;9124;48.144;17.098;2023-02-13T22:07:01;6.90;88.30
17998;DHT22;9124;48.144;17.098;2023-02-13T22:10:37;6.90;88.30
17998;DHT22;9124;48.144;17.098;2023-02-13T22:14:16;6.90;88.40
17998;DHT22;9124;48.144;17.098;2023-02-13T22:17:52;6.90;88.40
17998;DHT22;9124;48.144;17.098;2023-02-13T22:21:30;7.00;88.50
17998;DHT22;9124;48.144;17.098;2023-02-13T22:25:07;6.90;88.40
17998;DHT22;9124;48.144;17.098;2023-02-13T22:28:44;6.90;88.40
17998;DHT22;9124;48.144;17.098;2023-02-13T22:32:21;6.90;88.50
17998;DHT22;9124;48.144;17.098;2023-02-13T22:35:59;6.90;88.50
17998;DHT22;9124;48.144;17.098;2023-02-13T22:39:35;6.90;88.60
17998;DHT22;9124;48.144;17.098;2023-02-13T22:43:12;6.90;88.60
17998;DHT22;9124;48.144;17.098;2023-02-13T22:46:48;6.90;88.60
17998;DHT22;9124;48.144;17.098;2023-02-13T22:50:24;6.80;88.50
17998;DHT22;9124;48.144;17.098;2023-02-13T22:54:01;6.80;88.60
17998;DHT22;9124;48.144;17.098;2023-02-13T22:57:38;6.70;88.60
17998;DHT22;9124;48.144;17.098;2023-02-13T23:01:17;6.60;88.60
17998;DHT22;9124;48.144;17.098;2023-02-13T23:04:53;6.60;88.70
17998;DHT22;9124;48.144;17.098;2023-02-13T23:08:30;6.60;88.80
17998;DHT22;9124;48.144;17.098;2023-02-13T23:12:07;6.60;88.80
17998;DHT22;9124;48.144;17.098;2023-02-13T23:16:02;6.60;88.80
17998;DHT22;9124;48.144;17.098;2023-02-13T23:19:38;6.60;88.80
17998;DHT22;9124;48.144;17.098;2023-02-13T23:23:15;6.60;88.90
17998;DHT22;9124;48.144;17.098;2023-02-13T23:26:51;6.60;88.90
17998;DHT22;9124;48.144;17.098;2023-02-13T23:30:28;6.60;88.90
17998;DHT22;9124;48.144;17.098;2023-02-13T23:34:05;6.60;88.90
17998;DHT22;9124;48.144;17.098;2023-02-13T23:37:42;6.50;88.80
17998;DHT22;9124;48.144;17.098;2023-02-13T23:41:18;6.50;88.80
17998;DHT22;9124;48.144;17.098;2023-02-13T23:44:55;6.40;88.80
17998;DHT22;9124;48.144;17.098;2023-02-13T23:48:31;6.40;88.90
17998;DHT22;9124;48.144;17.098;2023-02-13T23:52:07;6.40;89.00
17998;DHT22;9124;48.144;17.098;2023-02-13T23:55:44;6.30;89.00
17998;DHT22;9124;48.144;17.098;2023-02-13T23:59:21;6.30;89.10
